createdAt,value
2022-10-02T00:00:00.362Z,13.85
2022-10-02T00:02:49.801Z,13.71
2022-10-02T00:05:29.109Z,13.79
2022-10-02T00:08:20.760Z,13.83
2022-10-02T00:10:57.284Z,13.92
2022-10-02T00:13:31.020Z,13.98
2022-10-02T00:15:57.961Z,14.00
2022-10-02T00:18:34.361Z,14.06
2022-10-02T00:21:09.693Z,14.08
2022-10-02T00:23:41.554Z,14.09
2022-10-02T00:26:18.855Z,14.11
2022-10-02T00:28:54.618Z,14.13
2022-10-02T00:31:28.319Z,14.10
2022-10-02T00:34:21.681Z,14.07
2022-10-02T00:37:35.505Z,14.09
2022-10-02T00:40:38.530Z,14.15
2022-10-02T00:43:24.569Z,13.96
2022-10-02T00:46:20.547Z,14.01
2022-10-02T00:48:58.984Z,14.10
2022-10-02T00:51:48.591Z,14.19
2022-10-02T00:54:24.483Z,14.20
2022-10-02T00:57:05.413Z,14.22
2022-10-02T00:59:38.509Z,14.17
2022-10-02T01:02:12.318Z,14.38
2022-10-02T01:04:40.587Z,14.19
2022-10-02T01:07:11.303Z,14.23
2022-10-02T01:09:39.808Z,14.39
2022-10-02T01:12:07.109Z,14.47
2022-10-02T01:14:40.027Z,14.29
2022-10-02T01:17:19.240Z,14.15
2022-10-02T01:19:45.820Z,14.17
2022-10-02T01:22:32.169Z,14.30
2022-10-02T01:25:04.106Z,14.32
2022-10-02T01:27:32.384Z,14.23
2022-10-02T01:30:07.523Z,14.38
2022-10-02T01:32:37.902Z,14.49
2022-10-02T01:35:05.078Z,14.35
2022-10-02T01:37:35.144Z,14.39
2022-10-02T01:40:11.582Z,14.20
2022-10-02T01:42:40.075Z,14.19
2022-10-02T01:45:08.949Z,14.21
2022-10-02T01:47:59.242Z,14.18
2022-10-02T01:50:47.587Z,14.26
2022-10-02T01:53:31.181Z,14.35
2022-10-02T01:56:05.018Z,14.46
2022-10-02T01:59:00.721Z,14.35
2022-10-02T02:02:00.550Z,14.28
2022-10-02T02:04:35.427Z,14.08
2022-10-02T02:07:16.182Z,14.08
2022-10-02T02:10:00.332Z,14.02
2022-10-02T02:12:45.488Z,13.94
2022-10-02T02:15:22.237Z,13.92
2022-10-02T02:18:00.994Z,13.93
2022-10-02T02:20:38.751Z,13.76
2022-10-02T02:23:10.584Z,13.79
2022-10-02T02:25:40.537Z,13.82
2022-10-02T02:28:12.357Z,13.72
2022-10-02T02:30:42.011Z,13.68
2022-10-02T02:33:17.049Z,13.68
2022-10-02T02:35:48.152Z,13.69
2022-10-02T02:38:28.273Z,13.68
2022-10-02T02:40:59.540Z,13.62
2022-10-02T02:43:44.358Z,13.62
2022-10-02T02:46:20.595Z,13.63
2022-10-02T02:48:52.474Z,13.60
2022-10-02T02:51:23.490Z,13.54
2022-10-02T02:53:59.192Z,13.72
2022-10-02T02:56:29.924Z,13.67
2022-10-02T02:59:10.301Z,13.65
2022-10-02T03:01:37.073Z,13.59
2022-10-02T03:04:03.876Z,13.48
2022-10-02T03:06:37.626Z,13.52
2022-10-02T03:09:07.833Z,13.55
2022-10-02T03:11:52.469Z,13.51
2022-10-02T03:14:49.279Z,13.34
2022-10-02T03:17:36.857Z,13.33
2022-10-02T03:20:21.391Z,13.45
2022-10-02T03:23:02.977Z,13.38
2022-10-02T03:25:31.791Z,13.26
2022-10-02T03:28:07.114Z,13.34
2022-10-02T03:30:35.575Z,13.40
2022-10-02T03:33:03.726Z,13.43
2022-10-02T03:35:31.766Z,13.46
2022-10-02T03:38:06.310Z,13.48
2022-10-02T03:40:32.716Z,13.77
2022-10-02T03:42:59.194Z,13.81
2022-10-02T03:45:49.407Z,13.79
2022-10-02T03:48:13.292Z,13.85
2022-10-02T03:50:39.678Z,13.82
2022-10-02T03:53:17.713Z,13.76
2022-10-02T03:55:48.283Z,13.99
2022-10-02T03:58:17.688Z,13.97
2022-10-02T04:00:55.274Z,14.15
2022-10-02T04:03:29.963Z,14.25
2022-10-02T04:06:01.992Z,14.17
2022-10-02T04:08:34.479Z,14.26
2022-10-02T04:11:16.823Z,14.35
2022-10-02T04:14:03.670Z,14.41
2022-10-02T04:16:35.916Z,14.36
2022-10-02T04:19:18.961Z,14.37
2022-10-02T04:21:58.242Z,14.39
2022-10-02T04:24:38.378Z,14.40
2022-10-02T04:27:36.771Z,14.37
2022-10-02T04:30:15.463Z,14.36
2022-10-02T04:32:41.846Z,14.38
2022-10-02T04:35:20.443Z,14.37
2022-10-02T04:38:15.335Z,14.37
2022-10-02T04:41:19.151Z,14.30
2022-10-02T04:44:24.679Z,14.27
2022-10-02T04:47:19.422Z,14.39
2022-10-02T04:49:59.652Z,14.38
2022-10-02T04:52:45.800Z,14.27
2022-10-02T04:55:36.651Z,14.33
2022-10-02T04:58:24.549Z,14.18
2022-10-02T05:01:25.956Z,14.33
2022-10-02T05:04:20.293Z,14.23
2022-10-02T05:07:07.762Z,14.30
2022-10-02T05:10:13.478Z,14.27
2022-10-02T05:13:12.939Z,14.26
2022-10-02T05:15:45.506Z,14.13
2022-10-02T05:18:19.652Z,14.12
2022-10-02T05:21:08.933Z,14.21
2022-10-02T05:23:57.069Z,14.11
2022-10-02T05:27:07.667Z,14.04
2022-10-02T05:29:47.857Z,14.04
2022-10-02T05:32:31.899Z,14.12
2022-10-02T05:35:15.762Z,14.12
2022-10-02T05:37:57.361Z,14.14
2022-10-02T05:40:29.951Z,14.08
2022-10-02T05:43:09.555Z,14.10
2022-10-02T05:46:11.236Z,14.15
2022-10-02T05:48:49.884Z,14.12
2022-10-02T05:51:31.586Z,14.12
2022-10-02T05:54:04.533Z,14.10
2022-10-02T05:57:02.294Z,14.17
2022-10-02T05:59:50.538Z,14.10
2022-10-02T06:02:38.886Z,14.06
2022-10-02T06:05:16.396Z,14.21
2022-10-02T06:07:47.223Z,14.13
2022-10-02T06:10:23.015Z,14.09
2022-10-02T06:13:11.337Z,14.05
2022-10-02T06:15:51.832Z,14.12
2022-10-02T06:18:23.625Z,14.04
2022-10-02T06:20:55.950Z,14.20
2022-10-02T06:23:25.400Z,14.22
2022-10-02T06:25:56.183Z,14.26
2022-10-02T06:28:51.601Z,14.33
2022-10-02T06:31:54.241Z,14.33
2022-10-02T06:34:20.779Z,14.32
2022-10-02T06:37:07.701Z,14.32
2022-10-02T06:39:52.649Z,14.31
2022-10-02T06:42:33.209Z,14.46
2022-10-02T06:45:08.715Z,14.42
2022-10-02T06:47:57.866Z,14.39
2022-10-02T06:50:43.430Z,14.39
2022-10-02T06:53:32.668Z,14.28
2022-10-02T06:56:05.099Z,14.35
2022-10-02T06:58:37.499Z,14.32
2022-10-02T07:01:24.509Z,14.34
2022-10-02T07:04:21.367Z,14.36
2022-10-02T07:07:06.579Z,14.27
2022-10-02T07:09:51.581Z,14.13
2022-10-02T07:12:36.167Z,14.28
2022-10-02T07:15:28.398Z,14.01
2022-10-02T07:17:57.720Z,14.04
2022-10-02T07:20:45.765Z,14.07
2022-10-02T07:23:26.481Z,13.97
2022-10-02T07:26:20.792Z,13.89
2022-10-02T07:29:07.362Z,13.91
2022-10-02T07:31:46.074Z,14.04
2022-10-02T07:34:39.913Z,14.20
2022-10-02T07:37:18.220Z,14.23
2022-10-02T07:39:50.343Z,14.21
2022-10-02T07:42:28.480Z,14.08
2022-10-02T07:45:20.091Z,14.12
2022-10-02T07:47:52.537Z,14.28
2022-10-02T07:50:27.377Z,14.16
2022-10-02T07:53:01.912Z,14.30
2022-10-02T07:55:28.585Z,14.33
2022-10-02T07:58:19.658Z,14.37
2022-10-02T08:00:51.029Z,14.53
2022-10-02T08:03:24.220Z,14.48
2022-10-02T08:05:54.757Z,14.44
2022-10-02T08:08:32.302Z,14.43
2022-10-02T08:11:08.233Z,14.57
2022-10-02T08:13:41.148Z,14.53
2022-10-02T08:16:09.457Z,14.50
2022-10-02T08:18:48.919Z,14.59
2022-10-02T08:21:18.729Z,14.58
2022-10-02T08:24:03.993Z,14.56
2022-10-02T08:26:47.429Z,14.59
2022-10-02T08:29:24.755Z,14.66
2022-10-02T08:31:53.128Z,14.54
2022-10-02T08:34:22.018Z,14.56
2022-10-02T08:37:01.876Z,14.48
2022-10-02T08:39:44.105Z,14.44
2022-10-02T08:42:32.096Z,14.60
2022-10-02T08:45:26.557Z,14.47
2022-10-02T08:48:18.476Z,14.50
2022-10-02T08:51:24.322Z,14.52
2022-10-02T08:53:50.627Z,14.63
2022-10-02T08:56:31.656Z,14.62
2022-10-02T08:59:31.025Z,14.69
2022-10-02T09:02:27.461Z,14.70
2022-10-02T09:05:26.811Z,14.71
2022-10-02T09:08:17.402Z,14.73
2022-10-02T09:11:08.684Z,14.74
2022-10-02T09:13:40.137Z,14.84
2022-10-02T09:16:14.802Z,14.92
2022-10-02T09:18:47.001Z,14.95
2022-10-02T09:21:18.779Z,14.90
2022-10-02T09:24:11.231Z,15.01
2022-10-02T09:27:00.599Z,14.90
2022-10-02T09:30:11.928Z,14.95
2022-10-02T09:33:28.662Z,14.96
2022-10-02T09:36:34.039Z,14.96
2022-10-02T09:39:18.828Z,14.94
2022-10-02T09:42:14.823Z,14.91
2022-10-02T09:45:15.530Z,14.87
2022-10-02T09:48:12.839Z,14.92
2022-10-02T09:50:49.814Z,14.78
2022-10-02T09:53:38.026Z,14.79
2022-10-02T09:56:20.419Z,14.76
2022-10-02T09:59:22.454Z,14.85
2022-10-02T10:02:07.935Z,14.85
2022-10-02T10:05:09.925Z,14.73
2022-10-02T10:07:53.146Z,14.79
2022-10-02T10:10:45.277Z,14.80
2022-10-02T10:13:21.413Z,14.96
2022-10-02T10:16:01.263Z,15.00
2022-10-02T10:18:42.239Z,15.12
2022-10-02T10:21:32.753Z,15.14
2022-10-02T10:24:17.869Z,15.06
2022-10-02T10:27:21.795Z,15.18
2022-10-02T10:30:23.722Z,15.15
2022-10-02T10:33:30.052Z,15.28
2022-10-02T10:36:36.531Z,15.19
2022-10-02T10:39:33.160Z,15.18
2022-10-02T10:42:18.867Z,15.18
2022-10-02T10:45:00.522Z,15.25
2022-10-02T10:47:38.574Z,15.30
2022-10-02T10:50:42.466Z,15.43
2022-10-02T10:53:24.011Z,15.58
2022-10-02T10:56:02.487Z,15.54
2022-10-02T10:58:53.918Z,15.73
2022-10-02T11:01:26.566Z,15.74
2022-10-02T11:04:26.496Z,15.72
2022-10-02T11:07:10.621Z,15.43
2022-10-02T11:09:55.633Z,15.60
2022-10-02T11:12:32.974Z,15.69
2022-10-02T11:15:30.171Z,15.80
2022-10-02T11:18:31.379Z,15.84
2022-10-02T11:21:18.699Z,15.89
2022-10-02T11:24:13.574Z,15.55
2022-10-02T11:26:45.988Z,15.73
2022-10-02T11:29:34.652Z,15.62
2022-10-02T11:32:28.264Z,15.57
2022-10-02T11:34:54.540Z,15.49
2022-10-02T11:37:42.395Z,15.67
2022-10-02T11:40:34.712Z,15.49
2022-10-02T11:43:13.948Z,15.55
2022-10-02T11:46:05.010Z,15.49
2022-10-02T11:48:47.981Z,15.45
2022-10-02T11:51:36.507Z,15.55
2022-10-02T11:54:21.999Z,15.65
2022-10-02T11:57:21.378Z,15.56
2022-10-02T12:00:16.038Z,15.59
2022-10-02T12:03:01.319Z,15.62
2022-10-02T12:05:46.316Z,15.72
2022-10-02T12:08:18.941Z,15.80
2022-10-02T12:11:09.083Z,15.89
2022-10-02T12:13:48.155Z,15.85
2022-10-02T12:16:32.620Z,15.83
2022-10-02T12:19:11.412Z,15.97
2022-10-02T12:22:18.395Z,16.21
2022-10-02T12:25:22.236Z,16.08
2022-10-02T12:28:05.614Z,16.05
2022-10-02T12:30:54.961Z,16.13
2022-10-02T12:33:45.842Z,16.08
2022-10-02T12:36:26.313Z,16.14
2022-10-02T12:39:05.704Z,16.07
2022-10-02T12:41:35.512Z,16.05
2022-10-02T12:44:36.160Z,16.07
2022-10-02T12:47:29.151Z,16.08
2022-10-02T12:50:39.427Z,15.99
2022-10-02T12:53:05.691Z,16.05
2022-10-02T12:55:50.568Z,16.11
2022-10-02T12:58:35.321Z,16.16
2022-10-02T13:01:30.722Z,16.32
2022-10-02T13:04:13.108Z,16.27
2022-10-02T13:07:08.052Z,16.37
2022-10-02T13:09:53.388Z,16.47
2022-10-02T13:12:30.542Z,16.74
2022-10-02T13:15:17.456Z,16.69
2022-10-02T13:17:51.113Z,16.65
2022-10-02T13:20:45.254Z,16.74
2022-10-02T13:23:50.577Z,16.64
2022-10-02T13:26:23.059Z,16.49
2022-10-02T13:29:34.529Z,16.48
2022-10-02T13:32:22.611Z,16.55
2022-10-02T13:34:55.069Z,16.67
2022-10-02T13:37:45.022Z,16.58
2022-10-02T13:40:19.904Z,16.48
2022-10-02T13:43:05.951Z,16.54
2022-10-02T13:45:49.811Z,16.44
2022-10-02T13:48:19.313Z,16.41
2022-10-02T13:51:07.860Z,16.36
2022-10-02T13:54:11.780Z,16.44
2022-10-02T13:57:02.688Z,16.34
2022-10-02T13:59:41.318Z,16.36
2022-10-02T14:02:39.579Z,16.35
2022-10-02T14:05:10.055Z,16.24
2022-10-02T14:07:48.106Z,16.35
2022-10-02T14:10:38.406Z,16.08
2022-10-02T14:13:20.021Z,16.06
2022-10-02T14:16:03.234Z,16.17
2022-10-02T14:18:45.535Z,16.12
2022-10-02T14:21:17.301Z,16.14
2022-10-02T14:24:02.127Z,16.06
2022-10-02T14:26:53.131Z,16.01
2022-10-02T14:29:35.022Z,15.74
2022-10-02T14:32:20.965Z,15.85
2022-10-02T14:35:03.024Z,15.90
2022-10-02T14:37:36.448Z,15.79
2022-10-02T14:40:12.611Z,15.93
2022-10-02T14:42:42.289Z,15.90
2022-10-02T14:45:46.366Z,15.86
2022-10-02T14:48:56.414Z,15.84
2022-10-02T14:51:40.814Z,15.87
2022-10-02T14:54:19.234Z,15.87
2022-10-02T14:56:45.587Z,15.93
2022-10-02T14:59:31.443Z,15.85
2022-10-02T15:02:20.548Z,15.89
2022-10-02T15:05:07.437Z,15.80
2022-10-02T15:07:36.889Z,15.90
2022-10-02T15:10:18.711Z,15.84
2022-10-02T15:12:58.434Z,15.78
2022-10-02T15:15:37.383Z,16.04
2022-10-02T15:18:41.878Z,15.90
2022-10-02T15:21:46.863Z,15.79
2022-10-02T15:24:43.794Z,15.92
2022-10-02T15:27:23.838Z,16.08
2022-10-02T15:29:58.954Z,15.90
2022-10-02T15:32:39.780Z,15.93
2022-10-02T15:35:36.111Z,15.97
2022-10-02T15:38:25.563Z,16.04
2022-10-02T15:41:01.844Z,15.98
2022-10-02T15:43:37.312Z,16.00
2022-10-02T15:46:45.840Z,15.99
2022-10-02T15:49:37.512Z,16.02
2022-10-02T15:52:14.877Z,16.03
2022-10-02T15:54:50.180Z,15.93
2022-10-02T15:58:15.284Z,15.88
2022-10-02T16:01:05.951Z,15.95
2022-10-02T16:03:50.768Z,15.88
2022-10-02T16:06:32.999Z,15.95
2022-10-02T16:09:43.031Z,15.95
2022-10-02T16:12:31.092Z,15.84
2022-10-02T16:15:00.499Z,15.86
2022-10-02T16:17:47.954Z,15.78
2022-10-02T16:20:27.091Z,15.86
2022-10-02T16:23:07.345Z,15.67
2022-10-02T16:25:58.277Z,15.55
2022-10-02T16:28:46.836Z,15.53
2022-10-02T16:31:31.827Z,15.51
2022-10-02T16:34:16.715Z,15.59
2022-10-02T16:36:57.283Z,15.33
2022-10-02T16:39:35.928Z,15.38
2022-10-02T16:42:20.309Z,15.22
2022-10-02T16:45:00.052Z,15.24
2022-10-02T16:47:35.195Z,15.22
2022-10-02T16:50:24.391Z,15.26
2022-10-02T16:52:54.134Z,15.21
2022-10-02T16:55:33.617Z,15.25
2022-10-02T16:58:21.904Z,15.30
2022-10-02T17:00:48.208Z,15.40
2022-10-02T17:03:30.178Z,15.37
2022-10-02T17:06:07.079Z,15.35
2022-10-02T17:08:44.160Z,15.33
2022-10-02T17:11:19.556Z,15.23
2022-10-02T17:14:07.859Z,15.05
2022-10-02T17:16:52.552Z,14.98
2022-10-02T17:19:35.167Z,14.88
2022-10-02T17:22:08.872Z,14.77
2022-10-02T17:24:42.949Z,14.69
2022-10-02T17:27:09.279Z,14.52
2022-10-02T17:30:12.423Z,14.37
2022-10-02T17:32:52.778Z,14.28
2022-10-02T17:35:43.805Z,14.12
2022-10-02T17:38:24.262Z,13.79
2022-10-02T17:40:59.202Z,13.59
2022-10-02T17:44:02.724Z,13.53
2022-10-02T17:46:35.382Z,13.70
2022-10-02T17:49:01.896Z,13.69
2022-10-02T17:51:53.656Z,13.54
2022-10-02T17:54:38.631Z,13.60
2022-10-02T17:57:07.731Z,13.54
2022-10-02T17:59:40.611Z,13.50
2022-10-02T18:02:09.964Z,13.47
2022-10-02T18:05:07.458Z,13.31
2022-10-02T18:08:01.166Z,13.10
2022-10-02T18:10:53.330Z,12.93
2022-10-02T18:13:25.953Z,12.79
2022-10-02T18:16:13.556Z,12.84
2022-10-02T18:19:09.731Z,12.73
2022-10-02T18:21:56.854Z,12.54
2022-10-02T18:24:39.596Z,12.69
2022-10-02T18:27:28.144Z,12.49
2022-10-02T18:30:11.768Z,12.69
2022-10-02T18:33:00.262Z,12.49
2022-10-02T18:35:34.918Z,12.29
2022-10-02T18:38:39.083Z,12.31
2022-10-02T18:41:32.626Z,12.01
2022-10-02T18:44:26.318Z,12.00
2022-10-02T18:47:37.603Z,11.89
2022-10-02T18:50:32.335Z,11.89
2022-10-02T18:53:17.372Z,11.88
2022-10-02T18:56:07.509Z,11.91
2022-10-02T18:58:52.541Z,11.80
2022-10-02T19:01:29.627Z,11.61
2022-10-02T19:04:10.792Z,11.53
2022-10-02T19:06:47.385Z,11.50
2022-10-02T19:09:20.928Z,11.50
2022-10-02T19:11:57.490Z,11.18
2022-10-02T19:14:36.787Z,11.49
2022-10-02T19:17:37.270Z,11.37
2022-10-02T19:20:35.550Z,11.40
2022-10-02T19:23:06.040Z,11.36
2022-10-02T19:25:33.390Z,11.41
2022-10-02T19:28:02.648Z,11.40
2022-10-02T19:30:32.298Z,11.31
2022-10-02T19:33:03.954Z,11.07
2022-10-02T19:35:38.576Z,11.04
2022-10-02T19:38:21.991Z,11.01
2022-10-02T19:40:52.988Z,11.04
2022-10-02T19:43:28.915Z,11.04
2022-10-02T19:45:58.944Z,10.91
2022-10-02T19:48:27.836Z,10.94
2022-10-02T19:51:07.297Z,11.05
2022-10-02T19:53:40.883Z,11.08
2022-10-02T19:56:12.926Z,10.91
2022-10-02T19:58:46.361Z,10.99
2022-10-02T20:01:20.034Z,10.96
2022-10-02T20:03:55.018Z,10.80
2022-10-02T20:06:24.566Z,10.72
2022-10-02T20:09:01.043Z,10.88
2022-10-02T20:11:39.233Z,10.72
2022-10-02T20:14:14.905Z,10.72
2022-10-02T20:17:00.099Z,10.73
2022-10-02T20:19:34.209Z,10.59
2022-10-02T20:22:10.567Z,10.71
2022-10-02T20:24:45.458Z,10.64
2022-10-02T20:27:25.866Z,10.55
2022-10-02T20:29:59.415Z,10.60
2022-10-02T20:32:34.602Z,10.51
2022-10-02T20:35:10.863Z,10.49
2022-10-02T20:37:40.639Z,10.57
2022-10-02T20:40:18.556Z,10.57
2022-10-02T20:43:04.228Z,10.49
2022-10-02T20:45:42.510Z,10.49
2022-10-02T20:48:49.269Z,10.62
2022-10-02T20:51:48.250Z,10.58
2022-10-02T20:55:00.755Z,10.62
2022-10-02T20:57:49.554Z,10.39
2022-10-02T21:00:28.687Z,10.22
2022-10-02T21:03:31.321Z,10.35
2022-10-02T21:06:12.080Z,10.36
2022-10-02T21:08:59.335Z,10.38
2022-10-02T21:11:28.680Z,10.37
2022-10-02T21:14:21.756Z,10.29
2022-10-02T21:17:10.810Z,10.32
2022-10-02T21:19:46.295Z,10.44
2022-10-02T21:22:34.593Z,10.32
2022-10-02T21:25:26.256Z,10.37
2022-10-02T21:28:24.100Z,10.41
2022-10-02T21:31:13.908Z,10.42
2022-10-02T21:33:58.689Z,10.47
2022-10-02T21:36:33.600Z,10.42
2022-10-02T21:39:43.189Z,10.48
2022-10-02T21:42:17.523Z,10.43
2022-10-02T21:44:49.861Z,10.36
2022-10-02T21:47:41.019Z,10.15
2022-10-02T21:50:41.433Z,10.02
2022-10-02T21:53:09.544Z,9.86
2022-10-02T21:55:54.760Z,9.90
2022-10-02T21:58:48.918Z,10.10
2022-10-02T22:02:03.804Z,10.04
2022-10-02T22:04:37.866Z,9.97
2022-10-02T22:07:22.488Z,9.76
2022-10-02T22:10:02.129Z,9.77
2022-10-02T22:12:47.023Z,9.80
2022-10-02T22:15:24.542Z,9.77
2022-10-02T22:18:02.679Z,9.73
2022-10-02T22:21:06.587Z,9.88
2022-10-02T22:23:42.145Z,9.81
2022-10-02T22:26:28.995Z,9.79
2022-10-02T22:29:29.629Z,9.68
2022-10-02T22:32:52.646Z,9.87
2022-10-02T22:35:27.353Z,9.99
2022-10-02T22:38:09.116Z,9.99
2022-10-02T22:40:46.639Z,10.16
2022-10-02T22:43:34.644Z,10.09
2022-10-02T22:46:43.997Z,10.21
2022-10-02T22:49:35.020Z,10.05
2022-10-02T22:52:20.021Z,10.04
2022-10-02T22:55:04.659Z,10.17
2022-10-02T22:57:42.074Z,10.23
2022-10-02T23:00:15.449Z,10.06
2022-10-02T23:03:03.796Z,10.29
2022-10-02T23:05:43.643Z,10.27
2022-10-02T23:08:31.085Z,10.26
2022-10-02T23:11:26.588Z,10.24
2022-10-02T23:14:14.400Z,10.08
2022-10-02T23:16:48.059Z,10.13
2022-10-02T23:19:33.953Z,10.07
2022-10-02T23:22:07.146Z,10.22
2022-10-02T23:25:23.482Z,10.15
2022-10-02T23:27:58.699Z,10.02
2022-10-02T23:30:25.453Z,10.21
2022-10-02T23:33:04.855Z,10.24
2022-10-02T23:35:46.182Z,10.31
2022-10-02T23:38:23.691Z,10.30
2022-10-02T23:41:26.207Z,10.35
2022-10-02T23:44:28.918Z,10.42
2022-10-02T23:46:55.705Z,10.41
2022-10-02T23:49:31.084Z,10.41
2022-10-02T23:52:42.447Z,10.51
2022-10-02T23:55:52.438Z,10.41
2022-10-02T23:58:35.878Z,10.48
